Terminal Aerodrome Forecast
Issued by NWS

Home | Current Version | Previous Version | Text Only | Print | Product List | Glossary On
Versions: 1 2 3 4 5 6 7 8 9 10 11 12 13 14 15 16 17 18 19 20
000
FTUS41 KPBZ 260520
TAFFKL
TAF
KFKL 260520Z 2606/2706 11008KT P6SM SCT025 BKN050
     FM261400 13012G22KT P6SM VCSH BKN035
     FM262200 15012G22KT 3SM -SHRA OVC015
      AMD LTD TO CLD VIS AND WIND=

USA.gov is the U.S. government's official web portal to all federal, state and local government web resources and services.